Mc Entire JNGB Airport
KMMT : rendu visible

Aérodrome :











RETROUVEZ-NOUS SUR...

 
LOGIN :

S'inscrire | Disclaimer

   EN    FR    IT 

 









Légende :    VFR   VFR Marginal   IFR   IFR Intensif   IFR Très Intensif
Visi : 
Plafond : 
>= 8 km
>= 3000ft
5 à 8 km
1000 à 3000 ft
1500m à 5 km
500 à 1000 ft
800 à 1500m
200 à 500 ft
< 800m
< 200 ft
Symboles :   Orages  Brouillard  Fortes neiges  Fortes précipitations  Vent > 20 kt






- Altitude de l'aérodrome : 254 ft


KMMT - Mc Entire JNGB

DERNIER METAR :
  • 191506Z 22003KT 7SM BKN006 OVC012 09/09 A2986 RMK AO2A CIG 006V012 BKN V SCT SLP115 $

METARs EXPIRÉS :
  • 191456Z 00000KT 7SM SCT006 OVC013 09/09 A2986 RMK AO2A SLP115 T00910091 53009 $
  • 191356Z 17004KT 7SM FEW006 OVC012 09/09 A2985 RMK AO2A SLP112 T00860086 $
  • 191256Z 12004KT 3SM BR OVC013 08/08 A2984 RMK AO2A SLP108 T00790079 $
  • 191247Z 11003KT 3SM BR OVC013 08/08 A2983 RMK AO2A SLP105 $
  • 191232Z 12004KT 2 1/2SM BR OVC012 08/08 A2983 RMK AO2A SLP105 $
  • 191156Z 09003KT 2SM BR OVC014 08/08 A2984 RMK AO2A SLP108 70015 T00790079 10079 20068 51012

TAF AMD TAF KMMT
Valide du 19 à 13h jusqu'au 20 à 14h UTC


191313Z 1913/2014 25006KT 9999 BKN013 QNH2983INS
TEMPO 1913/1916 BKN020
BECMG 1915/1916 26006KT 9999 SCT080 BKN100 QNH2983INS
BECMG 2001/2002 VRB06KT 9999 FEW015 SCT100 QNH2996INS TX13/1921Z TN05/1913Z



MET'MAP, la Météo Aéronautique d'un coup d'oeil ! - Copyright ORBIFLY Décembre 2007 - Disclaimer

ORBIFLY MET'MAP TEAM :

Programmation & Développement : Alexandra Zaïnal
Conception & Développement : Baudouin d'Aumeries
Co-Programmation & Développement : Marc-Olivier Méhu
Soutien technique & logistique : Manuel Goepfert

Contact : metmap@orbifly.com




SOURCES & CREDITS :

   NOAA       Earth
Advisory